createdAt,value
2017-12-17T00:00:40.954Z,0
2017-12-17T00:01:49.484Z,0
2017-12-17T00:02:58.016Z,0
2017-12-17T00:04:06.546Z,0
2017-12-17T00:05:15.075Z,0
2017-12-17T00:06:23.877Z,0
2017-12-17T00:07:32.942Z,0
2017-12-17T00:08:41.788Z,0
2017-12-17T00:09:50.589Z,0
2017-12-17T00:10:59.118Z,0
2017-12-17T00:12:07.648Z,0
2017-12-17T00:13:16.179Z,0
2017-12-17T00:14:24.709Z,0
2017-12-17T00:15:33.240Z,0
2017-12-17T00:16:42.037Z,0
2017-12-17T00:17:50.568Z,0
2017-12-17T00:18:59.366Z,0
2017-12-17T00:20:08.215Z,0
2017-12-17T00:21:17.016Z,0
2017-12-17T00:22:26.078Z,0
2017-12-17T00:23:35.675Z,0
2017-12-17T00:24:44.209Z,0
2017-12-17T00:25:52.737Z,0
2017-12-17T00:27:01.817Z,0
2017-12-17T00:28:10.611Z,0
2017-12-17T00:29:19.410Z,0
2017-12-17T00:30:28.743Z,0
2017-12-17T00:31:37.324Z,0
2017-12-17T00:32:45.858Z,0
2017-12-17T00:33:54.656Z,0
2017-12-17T00:35:03.455Z,0
2017-12-17T00:36:12.795Z,0
2017-12-17T00:37:21.859Z,0
2017-12-17T00:38:30.389Z,0
2017-12-17T00:39:38.919Z,0
2017-12-17T00:40:47.720Z,0
2017-12-17T00:41:56.519Z,0
2017-12-17T00:43:05.903Z,0
2017-12-17T00:44:14.697Z,0
2017-12-17T00:45:23.506Z,0
2017-12-17T00:46:32.838Z,0
2017-12-17T00:47:41.903Z,0
2017-12-17T00:48:50.706Z,0
2017-12-17T00:49:59.288Z,0
2017-12-17T00:51:07.819Z,0
2017-12-17T00:52:17.227Z,0
2017-12-17T00:53:26.322Z,0
2017-12-17T00:54:35.185Z,0
2017-12-17T00:55:44.253Z,0
2017-12-17T00:56:52.785Z,0
2017-12-17T00:58:01.599Z,0
2017-12-17T00:59:10.135Z,0
2017-12-17T01:00:18.661Z,0
2017-12-17T01:01:27.462Z,0
2017-12-17T01:02:36.528Z,0
2017-12-17T01:03:45.056Z,0
2017-12-17T01:04:53.584Z,0
2017-12-17T01:06:02.378Z,0
2017-12-17T01:07:11.175Z,0
2017-12-17T01:08:19.978Z,0
2017-12-17T01:09:29.042Z,0
2017-12-17T01:10:38.315Z,0
2017-12-17T01:11:47.274Z,0
2017-12-17T01:12:56.338Z,0
2017-12-17T01:14:05.145Z,0
2017-12-17T01:15:13.949Z,0
2017-12-17T01:16:22.481Z,0
2017-12-17T01:17:31.336Z,0
2017-12-17T01:18:39.868Z,0
2017-12-17T01:19:48.665Z,0
2017-12-17T01:20:57.463Z,0
2017-12-17T01:22:05.995Z,0
2017-12-17T01:23:14.795Z,0
2017-12-17T01:24:23.327Z,0
2017-12-17T01:25:32.130Z,0
2017-12-17T01:26:40.662Z,0
2017-12-17T01:27:49.468Z,0
2017-12-17T01:28:58.039Z,0
2017-12-17T01:30:06.836Z,0
2017-12-17T01:31:15.368Z,0
2017-12-17T01:32:24.164Z,0
2017-12-17T01:33:32.697Z,0
2017-12-17T01:34:41.496Z,0
2017-12-17T01:35:50.306Z,0
2017-12-17T01:36:58.834Z,0
2017-12-17T01:38:07.633Z,0
2017-12-17T01:39:16.583Z,0
2017-12-17T01:40:25.434Z,0
2017-12-17T01:41:33.964Z,0
2017-12-17T01:42:42.821Z,0
2017-12-17T01:43:51.618Z,0
2017-12-17T01:45:00.151Z,0
2017-12-17T01:46:08.679Z,0
2017-12-17T01:47:17.207Z,0
2017-12-17T01:48:26.006Z,0
2017-12-17T01:49:35.071Z,0
2017-12-17T01:50:43.602Z,0
2017-12-17T01:51:52.184Z,0
2017-12-17T01:53:00.716Z,0
2017-12-17T01:54:09.514Z,0
2017-12-17T01:55:18.308Z,0
2017-12-17T01:56:27.105Z,0
2017-12-17T01:57:35.638Z,0
2017-12-17T01:58:44.701Z,0
2017-12-17T01:59:53.766Z,0
2017-12-17T02:01:02.444Z,0
2017-12-17T02:02:11.509Z,0
2017-12-17T02:03:20.354Z,0
2017-12-17T02:04:29.414Z,0
2017-12-17T02:05:37.944Z,0
2017-12-17T02:06:47.010Z,0
2017-12-17T02:07:55.543Z,0
2017-12-17T02:09:04.617Z,0
2017-12-17T02:10:13.682Z,0
2017-12-17T02:11:22.412Z,0
2017-12-17T02:12:31.476Z,0
2017-12-17T02:13:40.278Z,0
2017-12-17T02:14:49.128Z,0
2017-12-17T02:15:58.189Z,0
2017-12-17T02:17:06.718Z,0
2017-12-17T02:18:15.250Z,0
2017-12-17T02:19:24.320Z,0
2017-12-17T02:20:33.661Z,0
2017-12-17T02:21:42.454Z,0
2017-12-17T02:22:51.257Z,0
2017-12-17T02:23:59.788Z,0
2017-12-17T02:25:08.585Z,0
2017-12-17T02:26:17.171Z,0
2017-12-17T02:27:25.916Z,0
2017-12-17T02:28:34.449Z,0
2017-12-17T02:29:42.980Z,0
2017-12-17T02:30:51.791Z,0
2017-12-17T02:32:00.978Z,0
2017-12-17T02:33:10.312Z,0
2017-12-17T02:34:19.377Z,0
2017-12-17T02:35:28.175Z,0
2017-12-17T02:36:36.976Z,0
2017-12-17T02:37:45.824Z,0
2017-12-17T02:38:54.889Z,0
2017-12-17T02:40:03.958Z,0
2017-12-17T02:41:13.021Z,0
2017-12-17T02:42:21.556Z,0
2017-12-17T02:43:30.087Z,0
2017-12-17T02:44:38.620Z,0
2017-12-17T02:45:47.428Z,0
2017-12-17T02:46:56.228Z,0
2017-12-17T02:48:05.027Z,0
2017-12-17T02:49:14.154Z,0
2017-12-17T02:50:22.677Z,0
2017-12-17T02:51:31.205Z,0
2017-12-17T02:52:39.740Z,0
2017-12-17T02:53:48.531Z,0
2017-12-17T02:54:57.064Z,0
2017-12-17T02:56:06.125Z,0
2017-12-17T02:57:14.929Z,0
2017-12-17T02:58:23.996Z,0
2017-12-17T02:59:32.525Z,0
2017-12-17T03:00:41.368Z,0
2017-12-17T03:01:50.437Z,0
2017-12-17T03:02:59.236Z,0
2017-12-17T03:04:08.308Z,0
2017-12-17T03:05:17.106Z,0
2017-12-17T03:06:25.904Z,0
2017-12-17T03:07:34.699Z,0
2017-12-17T03:08:43.229Z,0
2017-12-17T03:09:52.027Z,0
2017-12-17T03:11:00.565Z,0
2017-12-17T03:12:09.141Z,0
2017-12-17T03:13:17.673Z,0
2017-12-17T03:14:26.492Z,0
2017-12-17T03:15:35.024Z,0
2017-12-17T03:16:44.091Z,0
2017-12-17T03:17:52.620Z,0
2017-12-17T03:19:01.417Z,0
2017-12-17T03:20:09.946Z,0
2017-12-17T03:21:18.744Z,0
2017-12-17T03:22:28.076Z,0
2017-12-17T03:23:36.606Z,0
2017-12-17T03:24:45.736Z,0
2017-12-17T03:25:54.270Z,0
2017-12-17T03:27:02.800Z,0
2017-12-17T03:28:11.596Z,0
2017-12-17T03:29:20.443Z,0
2017-12-17T03:30:29.514Z,0
2017-12-17T03:31:38.042Z,0
2017-12-17T03:32:46.854Z,0
2017-12-17T03:33:55.651Z,0
2017-12-17T03:35:04.187Z,0
2017-12-17T03:36:12.988Z,0
2017-12-17T03:37:22.597Z,0
2017-12-17T03:38:31.665Z,0
2017-12-17T03:39:40.464Z,0
2017-12-17T03:40:49.265Z,0
2017-12-17T03:41:58.063Z,0
2017-12-17T03:43:06.593Z,0
2017-12-17T03:44:15.122Z,0
2017-12-17T03:45:24.189Z,0
2017-12-17T03:46:33.303Z,0
2017-12-17T03:47:42.102Z,0
2017-12-17T03:48:51.167Z,0
2017-12-17T03:49:59.967Z,0
2017-12-17T03:51:09.298Z,0
2017-12-17T03:52:17.827Z,0
2017-12-17T03:53:26.358Z,0
2017-12-17T03:54:35.160Z,0
2017-12-17T03:55:43.687Z,0
2017-12-17T03:56:52.216Z,0
2017-12-17T03:58:00.745Z,0
2017-12-17T03:59:09.813Z,0
2017-12-17T04:00:18.361Z,0
2017-12-17T04:01:27.688Z,0
2017-12-17T04:02:36.225Z,0
2017-12-17T04:03:44.753Z,0
2017-12-17T04:04:53.334Z,0
2017-12-17T04:06:01.817Z,0
2017-12-17T04:07:10.348Z,0
2017-12-17T04:08:19.680Z,0
2017-12-17T04:09:28.257Z,0
2017-12-17T04:10:37.053Z,0
2017-12-17T04:11:45.583Z,0
2017-12-17T04:12:54.381Z,0
2017-12-17T04:14:02.911Z,0
2017-12-17T04:15:11.709Z,0
2017-12-17T04:16:20.240Z,0
2017-12-17T04:17:28.771Z,0
2017-12-17T04:18:37.304Z,0
2017-12-17T04:19:46.408Z,0
2017-12-17T04:20:54.940Z,0
2017-12-17T04:22:03.474Z,0
2017-12-17T04:23:12.272Z,0
2017-12-17T04:24:21.076Z,0
2017-12-17T04:25:29.876Z,0
2017-12-17T04:26:38.730Z,0
2017-12-17T04:27:47.529Z,0
2017-12-17T04:28:56.059Z,0
2017-12-17T04:30:04.853Z,0
2017-12-17T04:31:13.384Z,0
2017-12-17T04:32:22.184Z,0
2017-12-17T04:33:30.712Z,0
2017-12-17T04:34:39.508Z,0
2017-12-17T04:35:48.308Z,0
2017-12-17T04:36:57.112Z,0
2017-12-17T04:38:05.959Z,0
2017-12-17T04:39:14.757Z,0
2017-12-17T04:40:23.288Z,0
2017-12-17T04:41:32.084Z,0
2017-12-17T04:42:40.882Z,0
2017-12-17T04:43:49.678Z,0
2017-12-17T04:44:59.004Z,0
2017-12-17T04:46:07.800Z,0
2017-12-17T04:47:16.330Z,0
2017-12-17T04:48:25.402Z,0
2017-12-17T04:49:33.981Z,0
2017-12-17T04:50:42.783Z,0
2017-12-17T04:51:51.842Z,0
2017-12-17T04:53:00.374Z,0
2017-12-17T04:54:09.442Z,0
2017-12-17T04:55:17.974Z,0
2017-12-17T04:56:26.771Z,0
2017-12-17T04:57:35.841Z,0
2017-12-17T04:58:45.172Z,0
2017-12-17T04:59:53.703Z,0
2017-12-17T05:01:02.498Z,0
2017-12-17T05:02:11.294Z,0
2017-12-17T05:03:20.625Z,0
2017-12-17T05:04:29.432Z,0
2017-12-17T05:05:37.964Z,0
2017-12-17T05:06:46.545Z,0
2017-12-17T05:07:55.340Z,0
2017-12-17T05:09:04.669Z,0
2017-12-17T05:10:13.473Z,0
2017-12-17T05:11:22.547Z,0
2017-12-17T05:12:31.875Z,0
2017-12-17T05:13:40.406Z,0
2017-12-17T05:14:49.470Z,0
2017-12-17T05:15:58.267Z,0
2017-12-17T05:17:07.074Z,0
2017-12-17T05:18:15.872Z,0
2017-12-17T05:19:24.668Z,0
2017-12-17T05:20:33.198Z,0
2017-12-17T05:21:41.729Z,0
2017-12-17T05:22:50.261Z,0
2017-12-17T05:23:59.375Z,0
2017-12-17T05:25:07.905Z,0
2017-12-17T05:26:16.703Z,0
2017-12-17T05:27:25.233Z,0
2017-12-17T05:28:33.767Z,0
2017-12-17T05:29:42.830Z,0
2017-12-17T05:30:51.899Z,0
2017-12-17T05:32:00.424Z,0
2017-12-17T05:33:09.496Z,0
2017-12-17T05:34:18.028Z,0
2017-12-17T05:35:26.877Z,0
2017-12-17T05:36:35.673Z,0
2017-12-17T05:37:44.200Z,0
2017-12-17T05:38:52.726Z,0
2017-12-17T05:40:01.261Z,0
2017-12-17T05:41:10.059Z,0
2017-12-17T05:42:18.590Z,0
2017-12-17T05:43:27.405Z,0
2017-12-17T05:44:36.187Z,0
2017-12-17T05:45:44.983Z,0
2017-12-17T05:46:53.510Z,0
2017-12-17T05:48:02.040Z,0
2017-12-17T05:49:10.842Z,0
2017-12-17T05:50:19.908Z,0
2017-12-17T05:51:28.438Z,0
2017-12-17T05:52:37.288Z,0
2017-12-17T05:53:46.353Z,0
2017-12-17T05:54:54.887Z,0
2017-12-17T05:56:03.954Z,0
2017-12-17T05:57:12.751Z,0
2017-12-17T05:58:21.548Z,0
2017-12-17T05:59:30.631Z,0
2017-12-17T06:00:39.433Z,0
2017-12-17T06:01:48.496Z,0
2017-12-17T06:02:57.562Z,0
2017-12-17T06:04:06.144Z,0
2017-12-17T06:05:14.676Z,0
2017-12-17T06:06:23.203Z,0
2017-12-17T06:07:31.763Z,0
2017-12-17T06:08:40.267Z,0
2017-12-17T06:09:49.067Z,0
2017-12-17T06:10:57.598Z,0
2017-12-17T06:12:06.129Z,0
2017-12-17T06:13:14.926Z,0
2017-12-17T06:14:23.989Z,0
2017-12-17T06:15:32.573Z,0
2017-12-17T06:16:41.365Z,0
2017-12-17T06:17:50.426Z,0
2017-12-17T06:18:59.222Z,0
2017-12-17T06:20:08.030Z,0
2017-12-17T06:21:16.558Z,0
2017-12-17T06:22:25.621Z,0
2017-12-17T06:23:34.683Z,0
2017-12-17T06:24:43.218Z,0
2017-12-17T06:25:52.553Z,0
2017-12-17T06:27:01.935Z,0
2017-12-17T06:28:10.465Z,0
2017-12-17T06:29:19.529Z,0
2017-12-17T06:30:28.590Z,0
2017-12-17T06:31:37.125Z,0
2017-12-17T06:32:45.654Z,0
2017-12-17T06:33:54.181Z,0
2017-12-17T06:35:02.709Z,0
2017-12-17T06:36:11.504Z,0
2017-12-17T06:37:20.300Z,0
2017-12-17T06:38:29.363Z,0
2017-12-17T06:39:38.165Z,0
2017-12-17T06:40:46.961Z,0
2017-12-17T06:41:55.758Z,0
2017-12-17T06:43:04.554Z,0
2017-12-17T06:44:13.353Z,0
2017-12-17T06:45:22.146Z,0
2017-12-17T06:46:30.677Z,0
2017-12-17T06:47:39.470Z,0
2017-12-17T06:48:48.534Z,0
2017-12-17T06:49:57.598Z,0
2017-12-17T06:51:06.396Z,0
2017-12-17T06:52:15.199Z,0
2017-12-17T06:53:24.531Z,0
2017-12-17T06:54:33.382Z,0
2017-12-17T06:55:42.183Z,0
2017-12-17T06:56:50.713Z,0
2017-12-17T06:57:59.240Z,0
2017-12-17T06:59:08.039Z,4
2017-12-17T07:00:16.570Z,4
2017-12-17T07:01:25.632Z,0
2017-12-17T07:02:34.432Z,4
2017-12-17T07:03:43.501Z,4
2017-12-17T07:04:52.302Z,4
2017-12-17T07:06:00.885Z,8
2017-12-17T07:07:09.679Z,4
2017-12-17T07:08:18.480Z,4
2017-12-17T07:09:27.277Z,8
2017-12-17T07:10:35.843Z,8
2017-12-17T07:11:44.875Z,8
2017-12-17T07:12:53.406Z,12
2017-12-17T07:14:02.474Z,12
2017-12-17T07:15:11.536Z,16
2017-12-17T07:16:20.068Z,20
2017-12-17T07:17:28.600Z,20
2017-12-17T07:18:38.199Z,24
2017-12-17T07:19:47.263Z,28
2017-12-17T07:20:56.324Z,32
2017-12-17T07:22:04.856Z,36
2017-12-17T07:23:14.193Z,40
2017-12-17T07:24:22.725Z,48
2017-12-17T07:25:31.520Z,60
2017-12-17T07:26:40.316Z,64
2017-12-17T07:27:49.110Z,76
2017-12-17T07:28:57.642Z,76
2017-12-17T07:30:06.714Z,88
2017-12-17T07:31:15.508Z,104
2017-12-17T07:32:24.039Z,112
2017-12-17T07:33:32.835Z,116
2017-12-17T07:34:41.416Z,132
2017-12-17T07:35:49.950Z,148
2017-12-17T07:36:59.286Z,152
2017-12-17T07:38:08.357Z,164
2017-12-17T07:39:17.748Z,184
2017-12-17T07:40:26.544Z,196
2017-12-17T07:41:35.075Z,212
2017-12-17T07:42:44.680Z,232
2017-12-17T07:43:53.213Z,236
2017-12-17T07:45:02.010Z,264
2017-12-17T07:46:10.806Z,264
2017-12-17T07:47:19.604Z,272
2017-12-17T07:48:28.666Z,316
2017-12-17T07:49:37.197Z,320
2017-12-17T07:50:45.725Z,336
2017-12-17T07:51:54.526Z,364
2017-12-17T07:53:03.325Z,392
2017-12-17T07:54:11.856Z,452
2017-12-17T07:55:20.655Z,476
2017-12-17T07:56:29.234Z,480
2017-12-17T07:57:37.763Z,552
2017-12-17T07:58:46.558Z,588
2017-12-17T07:59:55.233Z,612
2017-12-17T08:01:03.881Z,692
2017-12-17T08:02:12.410Z,644
2017-12-17T08:03:20.934Z,728
2017-12-17T08:04:29.745Z,768
2017-12-17T08:05:38.595Z,736
2017-12-17T08:06:47.394Z,764
2017-12-17T08:07:55.920Z,756
2017-12-17T08:09:04.454Z,880
2017-12-17T08:10:13.523Z,888
2017-12-17T08:11:22.324Z,892
2017-12-17T08:12:31.676Z,952
2017-12-17T08:13:40.527Z,960
2017-12-17T08:14:49.280Z,1044
2017-12-17T08:15:58.342Z,1092
2017-12-17T08:17:06.874Z,1096
2017-12-17T08:18:16.208Z,1048
2017-12-17T08:19:25.005Z,1140
2017-12-17T08:20:33.535Z,1072
2017-12-17T08:21:42.068Z,948
2017-12-17T08:22:50.866Z,952
2017-12-17T08:23:59.395Z,1040
2017-12-17T08:25:08.244Z,964
2017-12-17T08:26:17.045Z,1116
2017-12-17T08:27:26.376Z,1348
2017-12-17T08:28:34.906Z,1392
2017-12-17T08:29:43.432Z,1452
2017-12-17T08:30:52.277Z,1372
2017-12-17T08:32:01.073Z,1472
2017-12-17T08:33:09.869Z,1756
2017-12-17T08:34:18.664Z,1516
2017-12-17T08:35:27.727Z,1444
2017-12-17T08:36:36.521Z,1396
2017-12-17T08:37:45.323Z,1376
2017-12-17T08:38:54.388Z,1600
2017-12-17T08:40:03.786Z,1796
2017-12-17T08:41:12.585Z,1844
2017-12-17T08:42:21.614Z,1720
2017-12-17T08:43:30.412Z,1828
2017-12-17T08:44:39.209Z,1604
2017-12-17T08:45:47.738Z,1788
2017-12-17T08:46:56.536Z,1696
2017-12-17T08:48:05.335Z,1552
2017-12-17T08:49:14.138Z,1688
2017-12-17T08:50:22.668Z,1792
2017-12-17T08:51:31.197Z,1792
2017-12-17T08:52:39.996Z,1904
2017-12-17T08:53:48.578Z,1852
2017-12-17T08:54:57.106Z,2248
2017-12-17T08:56:05.905Z,1788
2017-12-17T08:57:14.434Z,1764
2017-12-17T08:58:22.964Z,1860
2017-12-17T08:59:31.495Z,1860
2017-12-17T09:00:40.293Z,1780
2017-12-17T09:01:48.823Z,2012
2017-12-17T09:02:58.156Z,1904
2017-12-17T09:04:06.687Z,1908
2017-12-17T09:05:15.531Z,2004
2017-12-17T09:06:24.334Z,2036
2017-12-17T09:07:33.402Z,2188
2017-12-17T09:08:42.210Z,2284
2017-12-17T09:09:50.740Z,2444
2017-12-17T09:10:59.802Z,2144
2017-12-17T09:12:08.366Z,2340
2017-12-17T09:13:16.863Z,2116
2017-12-17T09:14:25.395Z,1972
2017-12-17T09:15:33.927Z,2132
2017-12-17T09:16:42.723Z,2440
2017-12-17T09:17:51.786Z,2492
2017-12-17T09:19:00.319Z,2564
2017-12-17T09:20:09.391Z,2696
2017-12-17T09:21:17.920Z,2700
2017-12-17T09:22:26.452Z,2408
2017-12-17T09:23:34.989Z,2656
2017-12-17T09:24:44.053Z,2288
2017-12-17T09:25:52.852Z,2532
2017-12-17T09:27:01.381Z,2088
2017-12-17T09:28:09.913Z,2280
2017-12-17T09:29:18.716Z,2384
2017-12-17T09:30:27.779Z,2664
2017-12-17T09:31:36.578Z,2820
2017-12-17T09:32:45.377Z,2804
2017-12-17T09:33:53.959Z,2632
2017-12-17T09:35:02.762Z,2472
2017-12-17T09:36:11.964Z,2856
2017-12-17T09:37:20.496Z,2880
2017-12-17T09:38:30.098Z,2960
2017-12-17T09:39:38.896Z,2976
2017-12-17T09:40:47.958Z,3408
2017-12-17T09:41:57.023Z,2892
2017-12-17T09:43:05.555Z,2768
2017-12-17T09:44:14.354Z,3092
2017-12-17T09:45:23.481Z,3068
2017-12-17T09:46:32.279Z,3660
2017-12-17T09:47:41.076Z,3220
2017-12-17T09:48:50.146Z,2788
2017-12-17T09:49:58.675Z,3096
2017-12-17T09:51:07.807Z,3456
2017-12-17T09:52:16.615Z,3824
2017-12-17T09:53:25.680Z,2880
2017-12-17T09:54:34.212Z,2476
2017-12-17T09:55:43.009Z,2716
2017-12-17T09:56:51.858Z,2576
2017-12-17T09:58:00.663Z,3320
2017-12-17T09:59:09.460Z,3284
2017-12-17T10:00:17.987Z,3096
2017-12-17T10:01:26.788Z,2680
2017-12-17T10:02:36.173Z,3300
2017-12-17T10:03:45.241Z,3708
2017-12-17T10:04:53.771Z,2916
2017-12-17T10:06:02.303Z,2628
2017-12-17T10:07:11.376Z,3468
2017-12-17T10:08:20.173Z,4180
2017-12-17T10:09:29.237Z,3652
2017-12-17T10:10:37.770Z,3036
2017-12-17T10:11:46.567Z,2760
2017-12-17T10:12:55.374Z,3056
2017-12-17T10:14:04.218Z,3176
2017-12-17T10:15:13.028Z,3188
2017-12-17T10:16:21.834Z,3600
2017-12-17T10:17:30.899Z,2852
2017-12-17T10:18:39.963Z,3528
2017-12-17T10:19:48.495Z,3024
2017-12-17T10:20:57.026Z,2960
2017-12-17T10:22:05.558Z,2784
2017-12-17T10:23:14.358Z,3772
2017-12-17T10:24:23.159Z,2724
2017-12-17T10:25:32.006Z,3780
2017-12-17T10:26:40.559Z,3084
2017-12-17T10:27:49.982Z,3360
2017-12-17T10:28:58.787Z,3724
2017-12-17T10:30:07.591Z,3620
2017-12-17T10:31:16.392Z,4080
2017-12-17T10:32:25.452Z,3300
2017-12-17T10:33:34.256Z,3492
2017-12-17T10:34:42.795Z,3756
2017-12-17T10:35:51.858Z,3604
2017-12-17T10:37:00.922Z,3420
2017-12-17T10:38:09.989Z,3420
2017-12-17T10:39:19.061Z,3948
2017-12-17T10:40:27.597Z,3708
2017-12-17T10:41:36.671Z,5312
2017-12-17T10:42:45.741Z,4268
2017-12-17T10:43:54.272Z,3464
2017-12-17T10:45:03.072Z,5120
2017-12-17T10:46:12.137Z,4028
2017-12-17T10:47:21.211Z,4680
2017-12-17T10:48:29.738Z,4212
2017-12-17T10:49:38.272Z,3856
2017-12-17T10:50:47.073Z,4008
2017-12-17T10:51:55.871Z,4480
2017-12-17T10:53:04.666Z,4368
2017-12-17T10:54:13.201Z,4088
2017-12-17T10:55:22.538Z,4036
2017-12-17T10:56:31.334Z,3520
2017-12-17T10:57:40.416Z,3724
2017-12-17T10:58:48.946Z,4872
2017-12-17T10:59:58.014Z,4364
2017-12-17T11:01:06.811Z,3836
2017-12-17T11:02:15.875Z,4132
2017-12-17T11:03:24.407Z,4248
2017-12-17T11:04:32.944Z,4180
2017-12-17T11:05:41.521Z,5112
2017-12-17T11:06:50.323Z,3928
2017-12-17T11:07:59.122Z,4116
2017-12-17T11:09:07.923Z,4076
2017-12-17T11:10:16.776Z,3376
2017-12-17T11:11:25.308Z,3968
2017-12-17T11:12:34.105Z,4224
2017-12-17T11:13:42.903Z,4200
2017-12-17T11:14:51.970Z,4376
2017-12-17T11:16:00.771Z,4480
2017-12-17T11:17:09.305Z,4124
2017-12-17T11:18:18.637Z,3940
2017-12-17T11:19:27.441Z,3576
2017-12-17T11:20:35.975Z,3144
2017-12-17T11:21:44.824Z,3904
2017-12-17T11:22:53.621Z,3928
2017-12-17T11:24:02.688Z,3540
2017-12-17T11:25:11.223Z,3540
2017-12-17T11:26:20.292Z,3404
2017-12-17T11:27:29.354Z,3868
2017-12-17T11:28:38.418Z,3892
2017-12-17T11:29:47.488Z,3588
2017-12-17T11:30:56.018Z,3640
2017-12-17T11:32:04.820Z,3680
2017-12-17T11:33:13.351Z,3188
2017-12-17T11:34:22.154Z,3624
2017-12-17T11:35:30.955Z,3972
2017-12-17T11:36:39.488Z,5032
2017-12-17T11:37:48.563Z,4224
2017-12-17T11:38:57.089Z,3592
2017-12-17T11:40:06.171Z,3808
2017-12-17T11:41:15.506Z,3796
2017-12-17T11:42:24.313Z,4372
2017-12-17T11:43:33.121Z,4292
2017-12-17T11:44:41.921Z,4136
2017-12-17T11:45:50.720Z,3636
2017-12-17T11:46:59.320Z,3588
2017-12-17T11:48:08.392Z,3488
2017-12-17T11:49:17.188Z,3084
2017-12-17T11:50:25.721Z,2932
2017-12-17T11:51:34.520Z,3136
2017-12-17T11:52:43.586Z,3892
2017-12-17T11:53:52.655Z,4576
2017-12-17T11:55:01.464Z,4776
2017-12-17T11:56:10.534Z,4104
2017-12-17T11:57:19.067Z,4224
2017-12-17T11:58:27.598Z,3856
2017-12-17T11:59:36.400Z,4452
2017-12-17T12:00:45.200Z,4220
2017-12-17T12:01:53.784Z,4396
2017-12-17T12:03:02.582Z,3484
2017-12-17T12:04:11.115Z,3356
2017-12-17T12:05:19.649Z,3084
2017-12-17T12:06:28.445Z,3216
2017-12-17T12:07:37.030Z,3244
2017-12-17T12:08:45.826Z,3192
2017-12-17T12:09:54.358Z,3268
2017-12-17T12:11:03.703Z,3460
2017-12-17T12:12:12.512Z,3256
2017-12-17T12:13:21.308Z,3524
2017-12-17T12:14:29.841Z,3260
2017-12-17T12:15:38.371Z,3228
2017-12-17T12:16:47.711Z,3328
2017-12-17T12:17:56.510Z,3536
2017-12-17T12:19:05.308Z,4208
2017-12-17T12:20:14.637Z,3284
2017-12-17T12:21:23.171Z,3188
2017-12-17T12:22:31.705Z,3288
2017-12-17T12:23:40.507Z,3284
2017-12-17T12:24:49.306Z,3992
2017-12-17T12:25:58.378Z,4388
2017-12-17T12:27:07.178Z,4000
2017-12-17T12:28:16.244Z,4652
2017-12-17T12:29:25.309Z,4476
2017-12-17T12:30:33.896Z,3900
2017-12-17T12:31:42.430Z,3544
2017-12-17T12:32:50.967Z,3496
2017-12-17T12:33:59.761Z,3936
2017-12-17T12:35:08.826Z,3680
2017-12-17T12:36:17.357Z,3352
2017-12-17T12:37:25.888Z,3244
2017-12-17T12:38:34.958Z,3804
2017-12-17T12:39:44.558Z,3808
2017-12-17T12:40:53.630Z,3844
2017-12-17T12:42:02.163Z,3548
2017-12-17T12:43:11.230Z,3020
2017-12-17T12:44:20.303Z,2824
2017-12-17T12:45:29.640Z,2468
2017-12-17T12:46:38.766Z,2716
2017-12-17T12:47:48.108Z,2556
2017-12-17T12:48:57.179Z,2808
2017-12-17T12:50:05.710Z,3276
2017-12-17T12:51:14.509Z,3612
2017-12-17T12:52:23.358Z,3324
2017-12-17T12:53:32.160Z,2872
2017-12-17T12:54:40.967Z,2276
2017-12-17T12:55:49.500Z,2288
2017-12-17T12:56:58.601Z,2388
2017-12-17T12:58:07.666Z,2296
2017-12-17T12:59:16.467Z,2428
2017-12-17T13:00:25.267Z,2516
2017-12-17T13:01:34.065Z,2316
2017-12-17T13:02:43.151Z,2168
2017-12-17T13:03:51.686Z,2704
2017-12-17T13:05:00.223Z,2952
2017-12-17T13:06:08.759Z,2904
2017-12-17T13:07:17.292Z,2612
2017-12-17T13:08:26.624Z,1996
2017-12-17T13:09:35.742Z,2164
2017-12-17T13:10:44.541Z,2660
2017-12-17T13:11:53.344Z,2140
2017-12-17T13:13:01.884Z,2304
2017-12-17T13:14:10.418Z,2084
2017-12-17T13:15:18.952Z,1784
2017-12-17T13:16:27.483Z,1572
2017-12-17T13:17:36.284Z,1776
2017-12-17T13:18:45.085Z,1660
2017-12-17T13:19:53.886Z,2168
2017-12-17T13:21:02.420Z,2792
2017-12-17T13:22:11.219Z,2468
2017-12-17T13:23:20.017Z,2044
2017-12-17T13:24:29.362Z,1904
2017-12-17T13:25:38.511Z,2172
2017-12-17T13:26:47.850Z,1948
2017-12-17T13:27:56.384Z,1644
2017-12-17T13:29:04.917Z,1564
2017-12-17T13:30:13.454Z,1296
2017-12-17T13:31:21.987Z,1552
2017-12-17T13:32:30.578Z,1780
2017-12-17T13:33:39.375Z,1800
2017-12-17T13:34:48.468Z,1616
2017-12-17T13:35:57.003Z,1592
2017-12-17T13:37:05.802Z,1608
2017-12-17T13:38:14.603Z,1536
2017-12-17T13:39:23.408Z,1960
2017-12-17T13:40:32.207Z,1808
2017-12-17T13:41:41.008Z,1468
2017-12-17T13:42:49.807Z,1448
2017-12-17T13:43:58.876Z,1436
2017-12-17T13:45:07.680Z,1360
2017-12-17T13:46:16.497Z,1708
2017-12-17T13:47:25.028Z,1528
2017-12-17T13:48:33.559Z,1708
2017-12-17T13:49:42.857Z,1688
2017-12-17T13:50:51.398Z,1560
2017-12-17T13:51:59.923Z,1640
2017-12-17T13:53:08.734Z,1556
2017-12-17T13:54:17.533Z,1916
2017-12-17T13:55:26.335Z,2132
2017-12-17T13:56:34.872Z,1584
2017-12-17T13:57:43.669Z,1540
2017-12-17T13:58:52.471Z,1576
2017-12-17T14:00:01.005Z,1520
2017-12-17T14:01:09.978Z,1380
2017-12-17T14:02:18.911Z,1328
2017-12-17T14:03:27.719Z,1236
2017-12-17T14:04:36.249Z,1224
2017-12-17T14:05:44.782Z,1244
2017-12-17T14:06:53.602Z,1120
2017-12-17T14:08:02.401Z,1080
2017-12-17T14:09:10.933Z,1024
2017-12-17T14:10:19.736Z,904
2017-12-17T14:11:28.533Z,784
2017-12-17T14:12:37.381Z,776
2017-12-17T14:13:45.915Z,736
2017-12-17T14:14:54.719Z,688
2017-12-17T14:16:03.249Z,688
2017-12-17T14:17:11.781Z,636
2017-12-17T14:18:20.582Z,616
2017-12-17T14:19:29.382Z,676
2017-12-17T14:20:37.914Z,660
2017-12-17T14:21:46.446Z,704
2017-12-17T14:22:55.243Z,716
2017-12-17T14:24:04.369Z,652
2017-12-17T14:25:12.900Z,604
2017-12-17T14:26:21.966Z,684
2017-12-17T14:27:30.498Z,724
2017-12-17T14:28:39.298Z,712
2017-12-17T14:29:48.092Z,636
2017-12-17T14:30:56.893Z,740
2017-12-17T14:32:05.690Z,712
2017-12-17T14:33:14.753Z,660
2017-12-17T14:34:23.818Z,684
2017-12-17T14:35:32.615Z,704
2017-12-17T14:36:41.415Z,656
2017-12-17T14:37:49.950Z,568
2017-12-17T14:38:58.488Z,656
2017-12-17T14:40:07.553Z,620
2017-12-17T14:41:16.459Z,616
2017-12-17T14:42:25.529Z,580
2017-12-17T14:43:34.337Z,528
2017-12-17T14:44:43.404Z,508
2017-12-17T14:45:51.935Z,484
2017-12-17T14:47:00.997Z,520
2017-12-17T14:48:09.795Z,516
2017-12-17T14:49:18.325Z,592
2017-12-17T14:50:27.393Z,556
2017-12-17T14:51:35.928Z,508
2017-12-17T14:52:44.508Z,456
2017-12-17T14:53:53.305Z,400
2017-12-17T14:55:01.840Z,372
2017-12-17T14:56:10.635Z,348
2017-12-17T14:57:19.452Z,352
2017-12-17T14:58:28.251Z,368
2017-12-17T14:59:37.050Z,356
2017-12-17T15:00:46.122Z,352
2017-12-17T15:01:54.657Z,352
2017-12-17T15:03:03.721Z,336
2017-12-17T15:04:12.253Z,324
2017-12-17T15:05:21.053Z,308
2017-12-17T15:06:29.585Z,268
2017-12-17T15:07:38.652Z,232
2017-12-17T15:08:47.722Z,220
2017-12-17T15:09:56.525Z,200
2017-12-17T15:11:05.859Z,196
2017-12-17T15:12:14.393Z,184
2017-12-17T15:13:23.191Z,180
2017-12-17T15:14:31.990Z,184
2017-12-17T15:15:40.573Z,176
2017-12-17T15:16:49.371Z,164
2017-12-17T15:17:58.175Z,148
2017-12-17T15:19:06.710Z,120
2017-12-17T15:20:15.243Z,92
2017-12-17T15:21:24.041Z,80
2017-12-17T15:22:32.574Z,88
2017-12-17T15:23:41.373Z,88
2017-12-17T15:24:50.704Z,84
2017-12-17T15:25:59.505Z,84
2017-12-17T15:27:08.355Z,76
2017-12-17T15:28:17.164Z,64
2017-12-17T15:29:25.693Z,60
2017-12-17T15:30:34.756Z,56
2017-12-17T15:31:44.092Z,48
2017-12-17T15:32:52.625Z,40
2017-12-17T15:34:01.692Z,36
2017-12-17T15:35:10.218Z,32
2017-12-17T15:36:19.018Z,28
2017-12-17T15:37:27.816Z,24
2017-12-17T15:38:36.937Z,20
2017-12-17T15:39:45.471Z,16
2017-12-17T15:40:54.001Z,16
2017-12-17T15:42:03.069Z,12
2017-12-17T15:43:11.876Z,12
2017-12-17T15:44:21.484Z,8
2017-12-17T15:45:30.550Z,8
2017-12-17T15:46:39.347Z,8
2017-12-17T15:47:48.415Z,4
2017-12-17T15:48:57.218Z,4
2017-12-17T15:50:05.799Z,4
2017-12-17T15:51:14.596Z,4
2017-12-17T15:52:23.395Z,4
2017-12-17T15:53:32.195Z,4
2017-12-17T15:54:40.993Z,4
2017-12-17T15:55:50.062Z,0
2017-12-17T15:56:58.865Z,0
2017-12-17T15:58:07.667Z,0
2017-12-17T15:59:16.463Z,0
2017-12-17T16:00:25.261Z,0
2017-12-17T16:01:33.844Z,0
2017-12-17T16:02:42.375Z,0
2017-12-17T16:03:51.720Z,0
2017-12-17T16:05:00.548Z,0
2017-12-17T16:06:09.347Z,0
2017-12-17T16:07:18.413Z,0
2017-12-17T16:08:26.948Z,0